Time;durP1;ratioP1;P1;durP2;ratioP2;P2;SDS_P1;SDS_P2;PMS_P1;PMS_P2;Temp;Humidity;BMP_temperature;BMP_pressure;BME280_temperature;BME280_humidity;BME280_pressure;Samples;Min_cycle;Max_cycle;Signal;HPM_P1;HPM_P2
2021/07/08 00:02:00;;;;;;;20.30;5.90;;;24.90;75.10;;;;;;5052365;28;20031;-66
2021/07/08 00:04:27;;;;;;;7.00;5.03;;;24.90;75.30;;;;;;5039378;28;20024;-66
2021/07/08 00:06:53;;;;;;;5.78;4.93;;;24.90;75.50;;;;;;5053810;28;20104;-66
2021/07/08 00:09:19;;;;;;;8.15;5.38;;;24.90;75.50;;;;;;5054372;28;20055;-66
2021/07/08 00:11:44;;;;;;;6.18;5.00;;;24.90;75.70;;;;;;5047157;28;20058;-66
2021/07/08 00:14:10;;;;;;;7.82;5.63;;;24.90;75.80;;;;;;5050711;28;20092;-66
2021/07/08 00:16:37;;;;;;;6.65;5.90;;;24.80;75.80;;;;;;5049504;28;20029;-66
2021/07/08 00:19:04;;;;;;;5.80;5.20;;;24.80;76.00;;;;;;5053488;28;20013;-66
2021/07/08 00:21:30;;;;;;;10.27;5.57;;;24.80;76.20;;;;;;5039579;28;20029;-66
2021/07/08 00:23:55;;;;;;;7.75;5.65;;;24.80;76.40;;;;;;5051970;28;20025;-66
2021/07/08 00:26:21;;;;;;;8.43;5.32;;;24.80;76.40;;;;;;5062234;28;20135;-66
2021/07/08 00:28:47;;;;;;;7.78;5.43;;;24.80;76.60;;;;;;5053548;28;20017;-66
2021/07/08 00:31:12;;;;;;;6.90;5.82;;;24.80;76.70;;;;;;5047930;28;20017;-66
2021/07/08 00:33:38;;;;;;;6.50;5.78;;;24.80;76.80;;;;;;5053617;28;20057;-66
2021/07/08 00:36:05;;;;;;;6.28;5.22;;;24.80;77.10;;;;;;5051068;28;20029;-66
2021/07/08 00:38:31;;;;;;;7.93;5.43;;;24.70;77.00;;;;;;5039253;28;20028;-66
2021/07/08 00:40:57;;;;;;;5.95;5.20;;;24.70;77.00;;;;;;5050981;28;20074;-66
2021/07/08 00:43:27;;;;;;;8.38;6.13;;;24.70;77.10;;;;;;5053862;28;20430;-66
2021/07/08 00:45:53;;;;;;;6.07;5.28;;;24.70;77.00;;;;;;5052388;28;20018;-66
2021/07/08 00:48:18;;;;;;;7.40;5.30;;;24.70;77.20;;;;;;5037580;28;20112;-66
2021/07/08 00:50:48;;;;;;;7.97;5.32;;;24.70;77.30;;;;;;5040881;28;20024;-66
2021/07/08 00:53:17;;;;;;;9.52;6.05;;;24.60;77.30;;;;;;5052497;28;20025;-66
2021/07/08 00:55:46;;;;;;;7.07;5.65;;;24.60;77.50;;;;;;5053042;28;20028;-66
2021/07/08 00:58:16;;;;;;;7.05;5.55;;;24.60;77.30;;;;;;5052887;28;20025;-66
2021/07/08 01:00:42;;;;;;;7.53;5.70;;;24.60;77.30;;;;;;5061118;28;20102;-66
2021/07/08 01:03:10;;;;;;;9.63;5.45;;;24.60;77.40;;;;;;5052455;28;20631;-66
2021/07/08 01:05:39;;;;;;;6.43;5.72;;;24.60;77.50;;;;;;5044284;28;20029;-66
2021/07/08 01:08:06;;;;;;;6.97;6.22;;;24.60;77.60;;;;;;5052816;28;20033;-66
2021/07/08 01:10:32;;;;;;;6.38;5.78;;;24.50;77.50;;;;;;5046596;28;20409;-66
2021/07/08 01:12:58;;;;;;;6.35;5.53;;;24.50;77.40;;;;;;5059424;28;20493;-66
2021/07/08 01:15:25;;;;;;;8.40;6.07;;;24.50;77.40;;;;;;5052774;28;20488;-66
2021/07/08 01:17:51;;;;;;;6.22;5.63;;;24.50;77.70;;;;;;5053370;28;20473;-66
2021/07/08 01:20:19;;;;;;;8.55;5.80;;;24.50;77.60;;;;;;5048524;28;20024;-66
2021/07/08 01:22:48;;;;;;;7.68;5.75;;;24.50;77.60;;;;;;5040219;28;20033;-66
2021/07/08 01:25:14;;;;;;;7.40;5.40;;;24.50;77.60;;;;;;5045610;28;20053;-66
2021/07/08 01:27:40;;;;;;;9.68;6.47;;;24.50;77.80;;;;;;5048201;28;20017;-66
2021/07/08 01:30:09;;;;;;;9.63;5.57;;;24.50;77.90;;;;;;5049856;28;20025;-66
2021/07/08 01:32:35;;;;;;;7.57;5.78;;;24.40;77.80;;;;;;5049367;28;20495;-66
2021/07/08 01:35:02;;;;;;;6.30;5.60;;;24.40;78.10;;;;;;5052875;28;20151;-66
2021/07/08 01:37:28;;;;;;;6.50;5.78;;;24.40;78.40;;;;;;5052453;28;20028;-66
2021/07/08 01:39:53;;;;;;;6.55;5.85;;;24.40;78.70;;;;;;5036376;28;20033;-66
2021/07/08 01:42:19;;;;;;;6.43;5.18;;;24.40;78.70;;;;;;5052497;28;20047;-66
2021/07/08 01:44:45;;;;;;;7.05;5.28;;;24.40;78.30;;;;;;5044515;28;20036;-66
2021/07/08 01:47:10;;;;;;;7.78;5.82;;;24.40;78.60;;;;;;5043728;28;20048;-66
2021/07/08 01:49:36;;;;;;;7.13;5.50;;;24.40;78.60;;;;;;5052147;28;20033;-66
2021/07/08 01:52:03;;;;;;;6.50;5.57;;;24.40;78.70;;;;;;5049233;28;20034;-66
2021/07/08 01:54:28;;;;;;;9.10;5.72;;;24.40;78.80;;;;;;5052015;28;20499;-66
2021/07/08 01:56:54;;;;;;;7.97;5.68;;;24.40;78.30;;;;;;5049166;28;20032;-66
2021/07/08 01:59:19;;;;;;;7.30;6.20;;;24.40;78.00;;;;;;5052235;28;20033;-66
2021/07/08 02:01:45;;;;;;;7.63;5.80;;;24.40;78.60;;;;;;5035958;28;20032;-66
2021/07/08 02:04:11;;;;;;;7.57;5.65;;;24.40;78.30;;;;;;5048584;28;20053;-66
2021/07/08 02:06:36;;;;;;;6.72;5.50;;;24.40;78.10;;;;;;5038686;28;20033;-66
2021/07/08 02:09:05;;;;;;;8.93;5.95;;;24.40;77.90;;;;;;5052434;28;20017;-66
2021/07/08 02:11:31;;;;;;;6.00;5.38;;;24.40;77.70;;;;;;5051161;28;20115;-66
2021/07/08 02:13:57;;;;;;;8.07;5.38;;;24.40;77.80;;;;;;5043900;28;20116;-66
2021/07/08 02:16:23;;;;;;;6.30;5.45;;;24.40;78.20;;;;;;5054668;28;20524;-66
2021/07/08 02:18:51;;;;;;;6.45;4.82;;;24.40;78.40;;;;;;5043423;28;20041;-66
2021/07/08 02:21:16;;;;;;;6.25;4.97;;;24.50;78.40;;;;;;5055963;28;20029;-66
2021/07/08 02:23:42;;;;;;;5.30;4.80;;;24.40;77.30;;;;;;5055008;28;20033;-66
2021/07/08 02:26:08;;;;;;;6.43;5.40;;;24.50;77.30;;;;;;5055721;28;20057;-66
2021/07/08 02:28:35;;;;;;;8.13;4.70;;;24.50;76.90;;;;;;5054067;28;20048;-66
2021/07/08 02:31:01;;;;;;;7.70;5.10;;;24.50;76.30;;;;;;5052074;28;20040;-66
2021/07/08 02:33:27;;;;;;;6.93;5.35;;;24.50;76.30;;;;;;5044318;28;20030;-66
2021/07/08 02:35:53;;;;;;;7.05;5.22;;;24.50;76.50;;;;;;5052996;28;20029;-66
2021/07/08 02:38:19;;;;;;;8.10;5.35;;;24.50;76.40;;;;;;5055784;28;20028;-66
2021/07/08 02:40:45;;;;;;;6.13;5.07;;;24.50;76.10;;;;;;5049008;28;20022;-66
2021/07/08 02:43:11;;;;;;;5.90;5.05;;;24.60;76.00;;;;;;5063928;28;20121;-66
2021/07/08 02:45:40;;;;;;;6.22;5.53;;;24.50;76.10;;;;;;5054582;28;20033;-66
2021/07/08 02:48:11;;;;;;;10.80;5.13;;;24.60;76.20;;;;;;5039428;28;20524;-66
2021/07/08 02:50:41;;;;;;;6.32;4.68;;;24.70;75.80;;;;;;5055268;28;20078;-66
2021/07/08 02:53:07;;;;;;;7.07;5.20;;;24.70;75.20;;;;;;5054509;28;20114;-66
2021/07/08 02:55:33;;;;;;;7.65;4.60;;;24.70;75.10;;;;;;5055153;28;20033;-66
2021/07/08 02:57:59;;;;;;;5.78;4.75;;;24.70;75.00;;;;;;5055869;28;20387;-66
2021/07/08 03:00:26;;;;;;;6.57;4.70;;;24.70;74.90;;;;;;5055241;28;20511;-66
2021/07/08 03:02:53;;;;;;;7.63;4.85;;;24.80;74.90;;;;;;5046507;28;20025;-66
2021/07/08 03:05:19;;;;;;;5.72;4.60;;;24.80;74.60;;;;;;5048008;28;20032;-66
2021/07/08 03:07:45;;;;;;;5.97;4.80;;;24.80;74.60;;;;;;5053914;28;20112;-66
2021/07/08 03:10:13;;;;;;;6.75;5.30;;;24.90;74.30;;;;;;5052942;28;20017;-66
2021/07/08 03:12:39;;;;;;;5.70;4.70;;;24.90;73.90;;;;;;5059601;28;20025;-66
2021/07/08 03:15:07;;;;;;;5.55;4.93;;;24.90;73.50;;;;;;5056000;28;20385;-66
2021/07/08 03:17:33;;;;;;;5.85;5.22;;;25.00;73.20;;;;;;5058507;28;20389;-66
2021/07/08 03:19:59;;;;;;;5.68;4.78;;;25.00;73.20;;;;;;5051249;28;20028;-66
2021/07/08 03:22:25;;;;;;;6.53;4.82;;;25.00;73.10;;;;;;5038966;28;20029;-66
2021/07/08 03:24:50;;;;;;;5.18;4.55;;;25.10;73.20;;;;;;5052817;28;20049;-66
2021/07/08 03:27:16;;;;;;;6.82;4.95;;;25.20;72.80;;;;;;5053242;28;20391;-66
2021/07/08 03:29:42;;;;;;;6.63;4.43;;;25.20;72.30;;;;;;5052652;28;20028;-66
2021/07/08 03:32:08;;;;;;;7.22;4.50;;;25.20;72.20;;;;;;5047596;28;20393;-66
2021/07/08 03:34:33;;;;;;;5.18;4.68;;;25.30;72.40;;;;;;5053373;28;20103;-66
2021/07/08 03:36:59;;;;;;;5.65;5.10;;;25.50;73.10;;;;;;5044339;28;20025;-66
2021/07/08 03:39:25;;;;;;;7.50;5.05;;;25.70;73.20;;;;;;5048745;28;20477;-66
2021/07/08 03:41:50;;;;;;;4.93;4.43;;;26.00;72.70;;;;;;5053743;28;20078;-66
2021/07/08 03:44:16;;;;;;;6.85;4.90;;;26.50;72.30;;;;;;5037551;28;20098;-66
2021/07/08 03:46:42;;;;;;;6.43;4.68;;;26.80;71.10;;;;;;5047910;28;20025;-66
2021/07/08 03:49:07;;;;;;;4.78;4.28;;;27.30;70.20;;;;;;5054682;28;20071;-66
2021/07/08 03:51:33;;;;;;;6.25;4.32;;;28.00;69.00;;;;;;5053834;28;20029;-66
2021/07/08 03:53:59;;;;;;;5.22;4.63;;;28.80;67.60;;;;;;5053977;28;20040;-66
2021/07/08 03:56:24;;;;;;;4.88;4.28;;;29.60;65.50;;;;;;5042779;28;20020;-66
2021/07/08 03:58:50;;;;;;;4.85;3.90;;;30.60;63.30;;;;;;5054400;28;20021;-66
2021/07/08 04:01:16;;;;;;;4.57;3.97;;;31.50;60.90;;;;;;5041856;28;20548;-66
2021/07/08 04:03:42;;;;;;;4.13;3.60;;;32.30;58.90;;;;;;5049557;28;20104;-66
2021/07/08 04:06:08;;;;;;;4.18;3.67;;;33.00;57.00;;;;;;5054811;28;20025;-66
2021/07/08 04:08:33;;;;;;;4.40;3.97;;;33.80;55.80;;;;;;5053710;28;20082;-66
2021/07/08 04:10:59;;;;;;;7.22;3.88;;;34.40;54.60;;;;;;5051609;28;20063;-66
2021/07/08 04:13:27;;;;;;;4.68;3.65;;;35.20;53.60;;;;;;5048880;28;20036;-66
2021/07/08 04:15:53;;;;;;;5.65;4.13;;;35.90;52.60;;;;;;5052780;28;20388;-66
2021/07/08 04:18:20;;;;;;;3.85;3.38;;;36.60;51.90;;;;;;5047381;28;20032;-66
2021/07/08 04:20:46;;;;;;;3.95;3.55;;;37.30;50.60;;;;;;5053800;28;20533;-66
2021/07/08 04:23:13;;;;;;;4.70;3.58;;;37.90;49.20;;;;;;5049454;28;20046;-66
2021/07/08 04:25:40;;;;;;;4.00;3.60;;;38.50;48.20;;;;;;5052270;28;20048;-66
2021/07/08 04:28:07;;;;;;;3.90;3.40;;;39.10;47.10;;;;;;5052961;28;20024;-66
2021/07/08 04:30:33;;;;;;;4.53;3.47;;;39.50;46.10;;;;;;5050614;28;20104;-66
2021/07/08 04:32:59;;;;;;;3.80;3.40;;;40.00;45.30;;;;;;5052914;28;20021;-66
2021/07/08 04:35:30;;;;;;;3.95;3.55;;;40.30;44.50;;;;;;5053006;28;20033;-66
2021/07/08 04:37:57;;;;;;;4.60;3.53;;;40.50;44.00;;;;;;5050658;28;20020;-66
2021/07/08 04:40:23;;;;;;;5.82;3.33;;;40.90;43.40;;;;;;5053231;28;20049;-66
2021/07/08 04:42:50;;;;;;;3.40;3.00;;;41.20;42.60;;;;;;5052696;28;20053;-66
2021/07/08 04:45:17;;;;;;;3.35;3.05;;;41.40;41.80;;;;;;5052872;28;20025;-66
2021/07/08 04:47:43;;;;;;;3.65;2.92;;;41.30;41.30;;;;;;5052417;28;20021;-66
2021/07/08 04:50:12;;;;;;;4.10;3.13;;;41.30;40.90;;;;;;5051496;28;20017;-66
2021/07/08 04:52:38;;;;;;;3.38;3.08;;;41.30;40.80;;;;;;5051624;28;20032;-66
2021/07/08 04:55:08;;;;;;;4.97;3.00;;;41.20;40.60;;;;;;5052626;28;20465;-66
2021/07/08 04:57:34;;;;;;;3.35;2.90;;;41.10;40.50;;;;;;5051112;28;20028;-66
2021/07/08 04:59:59;;;;;;;4.78;3.17;;;41.10;40.50;;;;;;5052458;28;20362;-66
2021/07/08 05:02:25;;;;;;;4.13;3.53;;;41.00;40.50;;;;;;5051001;28;20021;-66
2021/07/08 05:04:51;;;;;;;3.45;3.03;;;41.00;40.70;;;;;;5048199;28;20063;-66
2021/07/08 05:07:16;;;;;;;3.50;3.20;;;41.20;40.40;;;;;;5052303;28;20424;-64
2021/07/08 05:09:43;;;;;;;4.35;3.08;;;41.20;40.10;;;;;;5052467;28;20021;-64
2021/07/08 05:12:09;;;;;;;4.50;3.40;;;41.10;39.90;;;;;;5051566;28;20025;-64
2021/07/08 05:14:35;;;;;;;3.65;3.33;;;41.20;40.40;;;;;;5052687;28;20435;-64
2021/07/08 05:17:02;;;;;;;3.60;3.30;;;41.30;40.30;;;;;;5052489;28;20033;-66
2021/07/08 05:19:28;;;;;;;3.80;3.17;;;41.50;40.20;;;;;;5052001;28;20025;-64
2021/07/08 05:21:55;;;;;;;3.33;2.97;;;41.70;39.80;;;;;;5048069;28;20409;-64
2021/07/08 05:24:23;;;;;;;3.22;2.90;;;42.00;39.50;;;;;;5052002;28;20021;-66
2021/07/08 05:26:49;;;;;;;6.20;3.15;;;41.90;38.80;;;;;;5044172;28;20037;-66
2021/07/08 05:29:15;;;;;;;3.88;2.95;;;41.50;38.90;;;;;;5045131;28;20021;-66
2021/07/08 05:31:41;;;;;;;3.97;3.28;;;40.80;39.00;;;;;;5048012;28;20036;-64
2021/07/08 05:34:07;;;;;;;4.68;3.50;;;40.00;39.90;;;;;;5044060;28;20488;-64
2021/07/08 05:36:33;;;;;;;4.60;3.47;;;39.20;40.80;;;;;;5041183;28;20033;-64
2021/07/08 05:38:59;;;;;;;4.32;3.38;;;38.20;41.60;;;;;;5044398;28;20021;-63
2021/07/08 05:41:24;;;;;;;4.18;3.45;;;37.30;42.70;;;;;;5038303;28;20042;-63
2021/07/08 05:43:50;;;;;;;4.55;3.45;;;36.50;43.80;;;;;;5044984;28;20036;-64
2021/07/08 05:46:16;;;;;;;4.72;3.63;;;35.70;44.80;;;;;;5047527;28;20025;-64
2021/07/08 05:48:41;;;;;;;4.30;3.60;;;34.90;45.80;;;;;;5049461;28;20026;-63
2021/07/08 05:51:07;;;;;;;4.50;3.90;;;34.40;47.00;;;;;;5049770;28;20116;-64
2021/07/08 05:53:33;;;;;;;6.32;3.92;;;33.80;47.90;;;;;;5047883;28;20025;-64
2021/07/08 05:55:58;;;;;;;6.22;3.30;;;33.50;48.20;;;;;;5041764;28;20033;-63
2021/07/08 05:58:24;;;;;;;4.45;3.40;;;33.20;48.70;;;;;;5040305;28;20152;-62
2021/07/08 06:00:50;;;;;;;5.53;3.33;;;32.90;49.10;;;;;;5043294;28;20036;-63
2021/07/08 06:03:16;;;;;;;5.72;3.70;;;32.60;49.10;;;;;;5047493;28;20025;-62
2021/07/08 06:05:42;;;;;;;4.80;3.60;;;32.30;49.40;;;;;;5045569;28;20037;-63
2021/07/08 06:08:08;;;;;;;5.20;3.42;;;32.00;50.10;;;;;;5048189;28;20083;-60
2021/07/08 06:10:34;;;;;;;7.07;4.07;;;31.70;50.90;;;;;;5047019;28;20404;-60
2021/07/08 06:13:00;;;;;;;7.28;3.72;;;31.40;51.70;;;;;;5044315;28;20525;-60
2021/07/08 06:15:26;;;;;;;4.22;3.83;;;31.20;52.00;;;;;;5038556;28;20036;-62
2021/07/08 06:17:52;;;;;;;3.95;3.55;;;31.00;52.80;;;;;;5045689;28;20065;-61
2021/07/08 06:20:18;;;;;;;5.13;3.80;;;30.80;53.00;;;;;;5044295;28;20103;-63
2021/07/08 06:22:44;;;;;;;5.93;3.80;;;30.60;53.90;;;;;;5042053;28;20037;-63
2021/07/08 06:25:11;;;;;;;3.92;3.53;;;30.50;53.90;;;;;;5043702;28;20151;-61
2021/07/08 06:27:37;;;;;;;4.75;3.60;;;30.40;54.00;;;;;;5046506;28;20414;-61
2021/07/08 06:30:07;;;;;;;4.47;3.20;;;30.20;54.10;;;;;;5047723;28;20103;-63
2021/07/08 06:32:33;;;;;;;;;;;30.10;54.50;;;;;;5042114;28;20033;-62
2021/07/08 06:34:58;;;;;;;3.25;2.92;;;30.00;54.00;;;;;;5046785;28;19945;-61
2021/07/08 06:37:25;;;;;;;3.15;2.85;;;29.90;54.40;;;;;;5042357;28;20043;-60
2021/07/08 06:39:53;;;;;;;3.88;2.95;;;29.80;54.70;;;;;;5051785;28;20076;-61
2021/07/08 06:42:18;;;;;;;10.20;3.20;;;29.70;54.60;;;;;;5047258;28;20033;-59
2021/07/08 06:44:45;;;;;;;6.90;3.17;;;29.60;54.40;;;;;;5037900;28;20032;-61
2021/07/08 06:47:14;;;;;;;4.40;3.03;;;29.60;54.20;;;;;;5047502;28;20056;-61
2021/07/08 06:49:40;;;;;;;3.00;2.70;;;29.50;54.60;;;;;;5044420;28;20048;-58
2021/07/08 06:52:06;;;;;;;3.17;2.88;;;29.40;54.30;;;;;;5046067;28;20037;-60
2021/07/08 06:54:32;;;;;;;4.70;2.80;;;29.30;54.50;;;;;;5041335;28;20045;-61
2021/07/08 06:56:57;;;;;;;3.30;3.00;;;29.30;54.60;;;;;;5037698;28;20017;-63
2021/07/08 06:59:23;;;;;;;3.67;3.00;;;29.20;54.40;;;;;;5037383;28;20052;-63
2021/07/08 07:01:49;;;;;;;4.50;2.95;;;29.20;54.90;;;;;;5039865;28;20033;-62
2021/07/08 07:04:15;;;;;;;5.18;3.10;;;29.10;55.30;;;;;;5034856;28;20057;-62
2021/07/08 07:06:41;;;;;;;3.30;2.97;;;29.10;55.30;;;;;;5031072;28;20029;-62
2021/07/08 07:09:06;;;;;;;2.90;2.70;;;29.00;55.20;;;;;;5026140;28;20037;-62
2021/07/08 07:11:32;;;;;;;3.75;2.80;;;29.00;55.10;;;;;;5028206;28;20454;-63
2021/07/08 07:13:58;;;;;;;4.10;3.17;;;29.00;55.40;;;;;;5033853;28;20037;-64
2021/07/08 07:16:23;;;;;;;3.22;2.92;;;29.00;56.50;;;;;;5031288;28;20612;-64
2021/07/08 07:18:49;;;;;;;3.65;3.05;;;29.00;55.70;;;;;;5027869;28;20105;-62
2021/07/08 07:21:22;;;;;;;6.10;3.08;;;29.00;55.40;;;;;;5020215;28;20026;-62
2021/07/08 07:23:49;;;;;;;3.70;2.83;;;29.00;54.80;;;;;;5044061;28;20029;-63
2021/07/08 07:26:16;;;;;;;3.20;2.90;;;28.90;54.90;;;;;;5029393;28;20110;-61
2021/07/08 07:28:42;;;;;;;4.13;2.80;;;28.90;55.30;;;;;;5027875;28;20028;-63
2021/07/08 07:31:21;;;;;;;3.42;2.88;;;28.90;55.20;;;;;;5019189;28;20029;-64
2021/07/08 07:33:47;;;;;;;3.33;2.88;;;28.90;55.60;;;;;;5027008;28;20040;-63
2021/07/08 07:36:13;;;;;;;4.15;2.90;;;28.90;55.00;;;;;;5031497;28;20037;-63
2021/07/08 07:38:40;;;;;;;3.90;2.97;;;28.90;55.00;;;;;;5026298;28;21057;-63
2021/07/08 07:41:06;;;;;;;3.63;2.53;;;28.90;55.00;;;;;;5030925;28;20033;-63
2021/07/08 07:43:32;;;;;;;4.85;3.08;;;28.90;55.00;;;;;;5034507;28;20043;-63
2021/07/08 07:45:58;;;;;;;3.50;2.75;;;28.90;54.90;;;;;;5024490;28;20151;-63
2021/07/08 07:48:24;;;;;;;3.67;2.80;;;28.80;55.00;;;;;;5034921;28;20057;-64
2021/07/08 07:50:49;;;;;;;3.00;2.60;;;28.80;54.80;;;;;;5030723;28;20064;-63
2021/07/08 07:53:15;;;;;;;3.83;2.88;;;28.80;54.50;;;;;;5031140;28;20033;-63
2021/07/08 07:55:41;;;;;;;4.65;2.38;;;28.70;54.90;;;;;;5031062;28;20077;-63
2021/07/08 07:58:07;;;;;;;3.17;2.47;;;28.80;54.60;;;;;;5033543;28;20079;-63
2021/07/08 08:00:33;;;;;;;3.92;2.83;;;28.70;54.50;;;;;;5031912;28;20029;-64
2021/07/08 08:02:59;;;;;;;5.05;2.88;;;28.70;54.60;;;;;;5023550;28;20027;-63
2021/07/08 08:10:37;;;;;;;3.05;2.53;;;28.70;54.70;;;;;;5020119;28;20091;-64
2021/07/08 08:13:07;;;;;;;4.78;2.72;;;28.60;54.30;;;;;;5021809;28;20029;-64
2021/07/08 08:15:33;;;;;;;3.30;2.50;;;28.60;54.10;;;;;;5020833;28;20033;-63
2021/07/08 08:18:02;;;;;;;3.05;2.35;;;28.60;54.30;;;;;;5024501;28;20040;-64
2021/07/08 08:20:30;;;;;;;2.70;2.38;;;28.70;54.70;;;;;;5030237;28;20572;-64
2021/07/08 08:22:57;;;;;;;3.03;2.35;;;28.60;54.10;;;;;;5029955;28;20040;-63
2021/07/08 08:25:23;;;;;;;3.53;2.53;;;28.60;54.00;;;;;;5004569;28;20041;-62
2021/07/08 08:27:49;;;;;;;4.60;2.03;;;28.60;53.70;;;;;;5024773;28;20052;-62
2021/07/08 08:30:14;;;;;;;2.03;1.92;;;28.60;53.00;;;;;;5018679;28;20033;-62
2021/07/08 08:32:41;;;;;;;5.00;2.40;;;28.60;53.00;;;;;;5019283;28;20136;-62
2021/07/08 08:35:08;;;;;;;3.08;2.13;;;28.60;51.30;;;;;;5026348;28;20060;-62
2021/07/08 08:37:34;;;;;;;2.47;1.95;;;28.60;50.70;;;;;;5027948;28;20021;-63
2021/07/08 08:40:00;;;;;;;4.18;2.60;;;28.50;50.50;;;;;;5030441;28;20061;-63
2021/07/08 08:42:29;;;;;;;2.50;2.30;;;28.50;50.20;;;;;;5027000;28;20112;-63
2021/07/08 08:44:55;;;;;;;1.88;1.70;;;28.50;49.90;;;;;;5031389;28;20033;-62
2021/07/08 08:47:21;;;;;;;4.47;2.03;;;28.50;49.00;;;;;;5028955;28;20064;-63
2021/07/08 08:49:47;;;;;;;3.50;2.50;;;28.40;49.00;;;;;;5029014;28;20496;-63
2021/07/08 08:52:13;;;;;;;2.70;2.50;;;28.40;49.30;;;;;;5028390;28;22564;-64
2021/07/08 08:54:43;;;;;;;2.58;2.38;;;28.40;49.20;;;;;;5047076;28;20107;-65
2021/07/08 08:57:09;;;;;;;2.75;2.50;;;28.40;49.20;;;;;;5028403;28;20433;-64
2021/07/08 08:59:35;;;;;;;4.13;2.53;;;28.40;50.30;;;;;;5022919;28;20083;-62
2021/07/08 09:02:18;;;;;;;3.95;2.10;;;28.40;51.20;;;;;;5026970;28;21011;-63
2021/07/08 09:04:48;;;;;;;3.40;2.03;;;28.40;50.80;;;;;;5031773;28;20032;-64
2021/07/08 09:07:31;;;;;;;3.08;2.10;;;28.40;50.80;;;;;;5026173;28;20045;-64
2021/07/08 09:10:09;;;;;;;2.80;2.08;;;28.50;50.40;;;;;;5025073;28;20102;-64
2021/07/08 09:12:35;;;;;;;3.63;2.20;;;28.50;50.20;;;;;;5028171;28;20044;-64
2021/07/08 09:15:16;;;;;;;2.45;2.25;;;28.50;50.50;;;;;;5029085;28;20033;-64
2021/07/08 09:17:43;;;;;;;3.53;2.45;;;28.50;50.30;;;;;;5025075;28;20040;-63
2021/07/08 09:20:14;;;;;;;3.85;2.33;;;28.40;49.40;;;;;;5022726;28;20033;-63
2021/07/08 09:22:39;;;;;;;;;;;28.40;50.00;;;;;;5025510;28;20033;-64
2021/07/08 09:25:34;;;;;;;1.90;1.80;;;28.40;50.40;;;;;;5026488;28;19923;-64
2021/07/08 09:28:15;;;;;;;2.83;2.20;;;28.30;50.30;;;;;;5015388;28;20086;-64
2021/07/08 09:30:43;;;;;;;6.28;2.47;;;28.30;50.50;;;;;;5027025;28;20041;-65
2021/07/08 09:33:54;;;;;;;4.03;2.60;;;28.30;50.10;;;;;;5026093;28;20095;-66
2021/07/08 09:36:19;;;;;;;2.47;2.28;;;28.30;50.10;;;;;;5021852;28;20103;-64
2021/07/08 09:38:47;;;;;;;3.85;2.20;;;28.30;50.40;;;;;;5019925;28;20035;-64
2021/07/08 09:41:15;;;;;;;4.03;2.40;;;28.30;50.20;;;;;;5029985;28;20110;-64
2021/07/08 09:43:42;;;;;;;4.75;2.40;;;28.30;50.20;;;;;;5022303;28;20088;-65
2021/07/08 09:46:10;;;;;;;2.83;2.40;;;28.30;50.10;;;;;;5021988;28;20052;-65
2021/07/08 09:48:36;;;;;;;3.05;2.38;;;28.30;49.80;;;;;;5020724;28;20516;-65
2021/07/08 09:51:02;;;;;;;4.07;2.70;;;28.30;49.50;;;;;;5025998;28;20037;-66
2021/07/08 09:53:30;;;;;;;3.53;2.33;;;28.30;49.60;;;;;;5028679;28;20074;-64
2021/07/08 09:58:54;;;;;;;3.20;2.58;;;28.30;50.00;;;;;;5030726;28;20561;-63
2021/07/08 10:01:20;;;;;;;4.57;2.53;;;28.30;49.80;;;;;;5022437;28;20082;-63
2021/07/08 10:03:48;;;;;;;2.90;2.40;;;28.30;49.90;;;;;;5024633;28;20029;-65
2021/07/08 10:06:15;;;;;;;3.25;2.60;;;28.30;50.00;;;;;;5021120;28;20033;-65
2021/07/08 10:08:41;;;;;;;2.80;2.50;;;28.30;50.00;;;;;;5028993;28;20370;-65
2021/07/08 10:11:14;;;;;;;4.03;2.70;;;28.30;49.80;;;;;;5021856;28;20112;-65
2021/07/08 10:13:40;;;;;;;3.90;2.40;;;28.30;49.70;;;;;;5028522;28;20366;-65
2021/07/08 10:16:07;;;;;;;2.50;2.30;;;28.20;49.60;;;;;;5030726;28;20033;-65
2021/07/08 10:18:37;;;;;;;5.32;2.53;;;28.20;49.90;;;;;;5021007;28;20037;-65
2021/07/08 10:21:05;;;;;;;6.13;2.30;;;28.20;49.60;;;;;;5030230;28;20033;-65
2021/07/08 10:23:32;;;;;;;4.00;2.10;;;28.20;50.10;;;;;;5028777;28;20049;-64
2021/07/08 10:26:00;;;;;;;3.58;2.10;;;28.10;49.90;;;;;;5023616;28;20053;-64
2021/07/08 10:28:29;;;;;;;2.67;2.22;;;28.10;49.80;;;;;;5030620;28;20120;-64
2021/07/08 10:30:56;;;;;;;4.63;2.38;;;28.00;49.90;;;;;;5027372;28;20167;-65
2021/07/08 10:33:22;;;;;;;2.95;2.20;;;28.00;50.10;;;;;;5032604;28;20053;-64
2021/07/08 10:35:49;;;;;;;2.85;2.28;;;28.00;50.30;;;;;;5031676;28;20032;-64
2021/07/08 10:38:31;;;;;;;3.95;2.33;;;28.00;50.20;;;;;;5040774;28;20080;-65
2021/07/08 10:40:59;;;;;;;2.83;2.40;;;28.00;50.40;;;;;;5035355;28;20039;-64
2021/07/08 10:43:41;;;;;;;4.97;2.70;;;28.00;50.90;;;;;;5036789;28;20033;-64
2021/07/08 10:46:09;;;;;;;3.95;2.83;;;28.00;50.40;;;;;;5038931;28;20033;-65
2021/07/08 10:48:44;;;;;;;3.72;2.70;;;27.90;50.60;;;;;;5034009;28;20032;-64
2021/07/08 10:51:23;;;;;;;2.67;2.33;;;27.90;50.70;;;;;;5039701;28;20040;-65
2021/07/08 10:53:50;;;;;;;2.40;2.20;;;27.90;50.80;;;;;;5033957;28;20044;-64
2021/07/08 10:56:21;;;;;;;6.20;2.50;;;27.90;51.00;;;;;;5037381;28;20037;-64
2021/07/08 10:58:55;;;;;;;2.20;2.00;;;27.90;51.20;;;;;;5029328;28;20045;-63
2021/07/08 11:01:23;;;;;;;3.03;2.30;;;27.90;51.50;;;;;;5026428;28;20057;-63
2021/07/08 11:03:52;;;;;;;3.13;2.13;;;27.90;51.60;;;;;;5029509;28;20026;-63
2021/07/08 11:06:23;;;;;;;2.85;2.22;;;27.90;51.30;;;;;;5030560;28;20467;-63
2021/07/08 11:08:58;;;;;;;2.47;2.28;;;27.90;50.90;;;;;;5031524;28;20025;-63
2021/07/08 11:11:24;;;;;;;1.98;1.88;;;27.80;50.80;;;;;;5032781;28;20033;-64
2021/07/08 11:13:52;;;;;;;2.95;2.42;;;27.80;50.80;;;;;;5026175;28;20029;-63
2021/07/08 11:16:44;;;;;;;4.93;2.63;;;27.80;50.70;;;;;;5023283;28;20799;-63
2021/07/08 11:19:15;;;;;;;2.75;2.30;;;27.80;50.60;;;;;;5032791;28;20037;-64
2021/07/08 11:21:52;;;;;;;3.05;2.35;;;27.80;50.20;;;;;;5030155;28;20039;-63
2021/07/08 11:24:24;;;;;;;2.63;2.20;;;27.80;50.30;;;;;;5021589;28;20032;-64
2021/07/08 11:26:55;;;;;;;2.03;1.88;;;27.80;50.80;;;;;;5033797;28;20059;-64
2021/07/08 11:29:44;;;;;;;2.90;2.22;;;27.80;50.80;;;;;;5022218;28;20040;-65
2021/07/08 11:32:26;;;;;;;4.88;2.58;;;27.80;50.80;;;;;;5023258;28;21034;-65
2021/07/08 11:34:58;;;;;;;3.90;2.05;;;27.90;50.80;;;;;;5031053;28;20033;-65
2021/07/08 11:38:00;;;;;;;2.65;2.35;;;27.90;50.80;;;;;;5031652;28;20120;-64
2021/07/08 11:40:19;;;;;;;3.70;2.10;;;27.90;50.80;;;;;;5028648;28;20049;-64
2021/07/08 11:42:47;;;;;;;3.30;2.17;;;27.90;51.00;;;;;;5037261;28;20029;-65
2021/07/08 11:45:22;;;;;;;4.45;2.22;;;27.90;50.90;;;;;;5030814;28;20078;-64
2021/07/08 11:47:49;;;;;;;3.78;2.33;;;27.90;51.00;;;;;;5026448;28;20940;-65
2021/07/08 11:50:29;;;;;;;3.35;2.53;;;27.90;51.20;;;;;;5031003;28;20029;-65
2021/07/08 11:53:10;;;;;;;3.83;2.25;;;27.90;51.20;;;;;;5024130;28;20024;-62
2021/07/08 11:55:41;;;;;;;2.75;2.10;;;28.00;51.20;;;;;;5026176;28;20167;-63
2021/07/08 11:58:09;;;;;;;3.20;2.10;;;27.90;51.00;;;;;;5027714;28;20028;-63
2021/07/08 12:00:43;;;;;;;2.47;2.22;;;27.90;50.70;;;;;;5025677;28;20033;-64
2021/07/08 12:03:36;;;;;;;2.00;1.83;;;27.90;51.00;;;;;;5024701;28;20060;-63
2021/07/08 12:06:09;;;;;;;3.65;2.10;;;27.90;50.90;;;;;;5027137;28;20039;-63
2021/07/08 12:08:43;;;;;;;2.20;2.00;;;27.90;50.80;;;;;;5028999;28;20099;-61
2021/07/08 12:11:16;;;;;;;2.25;2.10;;;27.90;50.00;;;;;;5021409;28;21435;-65
2021/07/08 12:14:01;;;;;;;4.38;2.22;;;28.00;50.20;;;;;;5027122;28;20119;-65
2021/07/08 12:16:51;;;;;;;7.03;2.40;;;28.00;50.80;;;;;;5023320;28;20032;-64
2021/07/08 12:19:26;;;;;;;3.00;2.27;;;28.00;50.00;;;;;;5020333;28;20098;-64
2021/07/08 12:21:54;;;;;;;2.38;1.98;;;28.00;49.90;;;;;;5026739;28;20048;-64
2021/07/08 12:24:27;;;;;;;7.35;2.53;;;28.00;50.00;;;;;;5027243;28;20087;-64
2021/07/08 12:27:02;;;;;;;5.82;2.80;;;28.00;50.60;;;;;;5025459;28;20049;-63
2021/07/08 12:29:46;;;;;;;4.15;2.10;;;28.00;50.40;;;;;;5023276;28;20108;-64
2021/07/08 12:32:18;;;;;;;4.20;2.45;;;28.00;50.30;;;;;;5024993;28;20040;-64
2021/07/08 12:34:47;;;;;;;3.30;2.10;;;28.00;49.80;;;;;;5022565;28;20059;-64
2021/07/08 12:37:17;;;;;;;5.72;2.47;;;28.00;49.90;;;;;;5030126;28;20033;-64
2021/07/08 12:39:44;;;;;;;4.22;2.28;;;28.00;51.00;;;;;;5027163;28;20029;-64
2021/07/08 12:42:17;;;;;;;4.07;2.35;;;28.00;50.40;;;;;;5023855;28;20033;-64
2021/07/08 12:44:46;;;;;;;2.10;2.00;;;28.00;50.30;;;;;;5023318;28;20034;-66
2021/07/08 12:47:12;;;;;;;2.42;2.20;;;28.10;50.40;;;;;;5032174;28;20060;-65
2021/07/08 12:49:39;;;;;;;3.08;1.83;;;28.00;50.10;;;;;;5030573;28;20120;-63
2021/07/08 12:52:06;;;;;;;2.67;2.20;;;28.10;49.90;;;;;;5031790;28;20051;-63
2021/07/08 12:54:32;;;;;;;3.03;2.00;;;28.00;50.00;;;;;;5030116;28;20039;-62
2021/07/08 12:57:19;;;;;;;2.65;2.08;;;28.00;50.00;;;;;;5028616;28;20048;-62
2021/07/08 13:00:04;;;;;;;2.70;1.98;;;28.10;49.80;;;;;;5023901;28;20031;-62
2021/07/08 13:02:32;;;;;;;2.63;1.92;;;28.10;49.80;;;;;;5024582;28;20086;-63